»·PEaware :: N515ZT KSMX-KBFL

N515ZT :: KSMX-KBFL

FLIGHT INFORMATION

Flight Status: Arrived
Operator: Privately registered:
United States
More flights under this callsign
Pilot: Marty P. (27464)
Aircraft: BEECH AIRCRAFT BARON
(BE58)
More flights by this aircraft type
Origin: KSMX Santa Maria Pub/Capt Hancock
United States
Destination: KBFL Meadows
United States
More flights between these airports :: More routes between these airports
Route: KSMX FLW FASTO KBFL
File this flight plan on PilotEdge
Remarks:
Altitude:
(Current/Filed)
7,500ft
Speed:
(Current/Filed)
180kts
Departed: 12-Jan-20 02:39 PM
Arrived: 12-Jan-20 03:46 PM
Distance/Time
Traveled:
76nm/1:06
Distance/Time
To Go:
Arrived

Flight Plot

Page will automatically refresh every two minutes.

Flight plan parsing failed; only flown route is shown


Map Options




Map Legend


Flown Route
Filed Route
Departure Airport
Arrival Airport
Navaid (VOR, NDB)
Fix

Horizontal Profiles

Position Reports

Time Latitude Longitude Heading Altitude Ground
Speed
12-Jan-20 14:16 34.896951 -120.446145 273 265ft 0kts
12-Jan-20 14:21 34.896951 -120.446145 273 265ft 0kts
12-Jan-20 14:23 34.896951 -120.446145 273 265ft 0kts
12-Jan-20 14:24 34.896951 -120.446145 273 265ft 0kts
12-Jan-20 14:25 34.896951 -120.446145 273 265ft 0kts
12-Jan-20 14:26 34.896951 -120.446145 273 265ft 0kts
12-Jan-20 14:27 34.896951 -120.446145 273 265ft 0kts
12-Jan-20 14:28 34.896951 -120.446145 273 265ft 0kts
12-Jan-20 14:29 34.896951 -120.446145 273 265ft 0kts
12-Jan-20 14:30 34.896951 -120.446145 273 265ft 0kts
12-Jan-20 14:31 34.896951 -120.446145 273 265ft 0kts
12-Jan-20 14:32 34.896954 -120.446221 273 265ft 6kts
12-Jan-20 14:33 34.896602 -120.447756 179 265ft 8kts
12-Jan-20 14:34 34.895787 -120.446952 135 265ft 9kts
12-Jan-20 14:35 34.894199 -120.445198 176 265ft 14kts
12-Jan-20 14:36 34.893470 -120.445209 181 265ft 0kts
12-Jan-20 14:37 34.892902 -120.445514 225 265ft 14kts
12-Jan-20 14:38 34.897285 -120.451165 313 289ft 104kts
12-Jan-20 14:39 34.912213 -120.468497 314 1045ft 127kts
12-Jan-20 14:40 34.931176 -120.483333 1 1925ft 142kts
12-Jan-20 14:41 34.947090 -120.464811 72 2844ft 154kts
12-Jan-20 14:42 34.945516 -120.437212 96 3707ft 151kts
12-Jan-20 14:43 34.942587 -120.412017 96 4413ft 152kts
12-Jan-20 14:44 34.939317 -120.384051 95 5173ft 152kts
12-Jan-20 14:45 34.937004 -120.355357 80 5948ft 152kts
12-Jan-20 14:46 34.943003 -120.327780 62 6736ft 147kts
12-Jan-20 14:47 34.951211 -120.301928 60 7554ft 143kts
12-Jan-20 14:48 34.960141 -120.274920 62 7626ft 179kts
12-Jan-20 14:49 34.970153 -120.244111 62 7598ft 196kts
12-Jan-20 14:50 34.980773 -120.211535 62 7578ft 200kts
12-Jan-20 14:51 34.991508 -120.178624 63 7553ft 202kts
12-Jan-20 14:52 35.002951 -120.143542 63 7548ft 201kts
12-Jan-20 14:53 35.014319 -120.108604 63 7541ft 201kts
12-Jan-20 14:54 35.024819 -120.076323 63 7538ft 201kts
12-Jan-20 14:55 35.035333 -120.043962 63 7489ft 203kts
12-Jan-20 14:56 35.046132 -120.010663 64 7470ft 200kts
12-Jan-20 14:57 35.057416 -119.975856 63 7449ft 201kts
12-Jan-20 14:58 35.067507 -119.944691 63 7461ft 200kts
12-Jan-20 14:59 35.077714 -119.913145 63 7465ft 200kts
12-Jan-20 15:00 35.087832 -119.881836 63 7466ft 200kts
12-Jan-20 15:01 35.095644 -119.850331 72 7475ft 202kts
12-Jan-20 15:02 35.100874 -119.822599 73 7467ft 203kts
12-Jan-20 15:03 35.106615 -119.791378 73 7467ft 203kts
12-Jan-20 15:04 35.112063 -119.761535 73 7465ft 203kts
12-Jan-20 15:05 35.117135 -119.733620 73 7470ft 202kts
12-Jan-20 15:06 35.121942 -119.707118 73 7478ft 202kts
12-Jan-20 15:07 35.126709 -119.680839 73 7514ft 200kts
12-Jan-20 15:08 35.130586 -119.659476 73 7487ft 202kts
12-Jan-20 15:09 35.134071 -119.640247 72 7500ft 201kts
12-Jan-20 15:10 35.137352 -119.622131 73 7485ft 202kts
12-Jan-20 15:11 35.140427 -119.605073 72 7453ft 203kts
12-Jan-20 15:12 35.142566 -119.593186 72 7471ft 201kts
12-Jan-20 15:13 35.144298 -119.583551 72 7481ft 200kts
12-Jan-20 15:14 35.146975 -119.568701 72 7486ft 200kts
12-Jan-20 15:15 35.149538 -119.554486 72 7429ft 203kts
12-Jan-20 15:16 35.152190 -119.539767 72 7459ft 199kts
12-Jan-20 15:17 35.154602 -119.526325 72 7512ft 197kts
12-Jan-20 15:18 35.156814 -119.514090 72 7481ft 199kts
12-Jan-20 15:19 35.161871 -119.486566 77 7264ft 201kts
12-Jan-20 15:20 35.168689 -119.447987 77 7267ft 189kts
12-Jan-20 15:21 35.175159 -119.411818 77 7327ft 183kts
12-Jan-20 15:22 35.181568 -119.375928 77 7287ft 186kts
12-Jan-20 15:23 35.187856 -119.340663 77 7294ft 185kts
12-Jan-20 15:24 35.193950 -119.306428 77 7307ft 185kts
12-Jan-20 15:25 35.200404 -119.270137 77 7318ft 185kts
12-Jan-20 15:26 35.206996 -119.232925 77 7000ft 197kts
12-Jan-20 15:27 35.213351 -119.197028 77 6571ft 203kts
12-Jan-20 15:28 35.220267 -119.157883 77 6033ft 206kts
12-Jan-20 15:29 35.227432 -119.117263 77 5448ft 208kts
12-Jan-20 15:30 35.234390 -119.077684 77 4780ft 204kts
12-Jan-20 15:31 35.241137 -119.039689 77 3922ft 197kts
12-Jan-20 15:32 35.247435 -119.003446 77 3099ft 196kts
12-Jan-20 15:33 35.254019 -118.965871 77 2621ft 183kts
12-Jan-20 15:34 35.259756 -118.933077 77 3379ft 167kts
12-Jan-20 15:35 35.265631 -118.899280 77 3387ft 183kts
12-Jan-20 15:36 35.283094 -118.871943 1 3266ft 187kts
12-Jan-20 15:37 35.304954 -118.896934 302 3436ft 182kts
12-Jan-20 15:38 35.326477 -118.927061 314 3265ft 180kts
12-Jan-20 15:39 35.346707 -118.951719 315 2733ft 162kts
12-Jan-20 15:40 35.365786 -118.974907 315 2079ft 156kts
12-Jan-20 15:41 35.384317 -118.997395 316 1637ft 158kts
12-Jan-20 15:42 35.405445 -119.021176 314 1311ft 160kts
12-Jan-20 15:43 35.421485 -119.041188 315 853ft 122kts
12-Jan-20 15:44 35.434394 -119.056812 315 511ft 76kts
12-Jan-20 15:45 35.437320 -119.060287 330 510ft 11kts
12-Jan-20 15:46 35.438151 -119.060068 60 510ft 0kts
12-Jan-20 15:47 35.438153 -119.060062 60 510ft 1kts
12-Jan-20 15:48 35.437193 -119.058018 135 510ft 24kts
12-Jan-20 15:49 35.434632 -119.054921 135 510ft 0kts
12-Jan-20 15:50 35.435452 -119.053396 63 510ft 15kts

Navigation Log

Ident Type
Flight plan parsing failed, navigation log unavailable